Time;durP1;ratioP1;P1;durP2;ratioP2;P2;SDS_P1;SDS_P2;PMS_P1;PMS_P2;Temp;Humidity;BMP_temperature;BMP_pressure;BME280_temperature;BME280_humidity;BME280_pressure;Samples;Min_cycle;Max_cycle;Signal;HPM_P1;HPM_P2
2022/01/27 00:01:46;;;;;;;;;66.75;52.75;;;;;4.25;82.24;102870.44;5001048;28;45222;-77
2022/01/27 00:06:34;;;;;;;;;70.25;55.25;;;;;4.21;82.31;102867.09;5000811;28;45290;-77
2022/01/27 00:09:10;;;;;;;;;67.50;53.75;;;;;4.13;82.27;102856.13;5000891;28;45185;-76
2022/01/27 00:11:35;;;;;;;;;60.50;49.50;;;;;4.14;82.82;102858.69;4982960;28;45266;-76
2022/01/27 00:14:02;;;;;;;;;63.75;52.00;;;;;4.18;82.84;102859.38;5000848;28;45225;-76
2022/01/27 00:16:28;;;;;;;;;72.50;55.25;;;;;4.26;82.45;102872.13;4983462;28;48288;-76
2022/01/27 00:18:55;;;;;;;;;69.50;53.75;;;;;4.23;82.57;102865.25;5000573;28;45267;-77
2022/01/27 00:21:25;;;;;;;;;68.50;52.00;;;;;4.21;82.92;102867.09;4983232;28;45307;-78
2022/01/27 00:23:52;;;;;;;;;69.50;54.50;;;;;4.21;82.48;102860.97;5000876;28;45179;-77
2022/01/27 00:26:18;;;;;;;;;65.00;53.50;;;;;4.21;82.77;102853.94;5000628;28;45252;-76
2022/01/27 00:28:45;;;;;;;;;70.50;56.25;;;;;4.21;83.09;102855.72;5000749;28;45346;-77
2022/01/27 00:31:11;;;;;;;;;75.50;57.75;;;;;4.14;82.91;102842.91;5000440;28;45415;-77
2022/01/27 00:33:37;;;;;;;;;71.75;55.50;;;;;4.19;82.93;102855.78;5000660;28;45341;-77
2022/01/27 00:36:03;;;;;;;;;63.75;52.25;;;;;4.19;83.18;102861.06;4982846;28;47945;-76
2022/01/27 00:38:30;;;;;;;;;68.50;55.25;;;;;4.21;83.19;102855.72;5000653;28;45241;-76
2022/01/27 00:40:55;;;;;;;;;73.50;53.75;;;;;4.19;82.79;102841.81;5000696;28;45389;-77
2022/01/27 00:43:21;;;;;;;;;74.00;58.50;;;;;4.21;82.48;102846.03;5000362;28;45267;-76
2022/01/27 00:45:47;;;;;;;;;69.25;54.00;;;;;4.15;82.67;102839.31;5000463;28;46355;-77
2022/01/27 00:48:15;;;;;;;;;65.00;52.25;;;;;4.10;82.26;102825.53;5000488;28;45222;-77
2022/01/27 00:50:41;;;;;;;;;71.75;56.50;;;;;4.15;83.17;102822.66;4982977;28;45361;-76
2022/01/27 00:53:20;;;;;;;;;69.50;54.25;;;;;4.16;82.75;102824.41;5000494;28;45334;-76
2022/01/27 00:55:46;;;;;;;;;68.25;53.00;;;;;4.10;83.27;102816.81;5000133;28;45320;-76
2022/01/27 01:00:49;;;;;;;;;65.00;52.00;;;;;4.02;82.77;102799.66;5000326;28;45310;-76
2022/01/27 01:03:25;;;;;;;;;68.25;53.50;;;;;4.06;82.76;102809.97;5000354;28;45338;-77
2022/01/27 01:16:20;;;;;;;;;67.00;53.25;;;;;3.93;83.16;102771.19;4999892;28;46160;-76
2022/01/27 01:19:38;;;;;;;;;73.75;57.00;;;;;3.97;83.40;102787.63;4981305;28;45384;-77
2022/01/27 01:32:16;;;;;;;;;67.50;52.50;;;;;3.88;82.85;102768.78;4999869;28;45397;-76
2022/01/27 01:34:46;;;;;;;;;59.00;48.50;;;;;3.93;82.65;102773.81;4982097;28;47089;-76
2022/01/27 01:37:12;;;;;;;;;65.75;52.00;;;;;3.79;83.04;102754.31;4999805;28;45403;-76
2022/01/27 01:39:38;;;;;;;;;61.25;50.75;;;;;3.77;83.16;102755.34;4981974;28;45386;-77
2022/01/27 01:42:06;;;;;;;;;63.25;51.00;;;;;3.79;83.43;102750.84;4999921;28;45154;-77
2022/01/27 01:44:32;;;;;;;;;64.75;48.00;;;;;3.82;82.83;102750.69;4999395;28;45507;-76
2022/01/27 01:46:58;;;;;;;;;65.25;52.00;;;;;3.76;83.29;102740.47;4999494;28;46299;-77
2022/01/27 01:49:26;;;;;;;;;62.50;50.75;;;;;3.86;83.63;102765.38;4981899;28;46182;-76
2022/01/27 01:51:53;;;;;;;;;61.25;49.75;;;;;3.78;83.08;102749.97;4999754;28;45290;-76
2022/01/27 01:54:18;;;;;;;;;62.00;51.00;;;;;3.78;83.31;102757.03;4981725;28;45972;-76
2022/01/27 01:56:44;;;;;;;;;61.75;50.00;;;;;3.68;82.75;102732.13;4981720;28;47523;-76
2022/01/27 01:59:11;;;;;;;;;68.25;53.25;;;;;3.78;83.26;102764.94;4999342;28;45223;-76
2022/01/27 02:01:37;;;;;;;;;59.75;47.75;;;;;3.75;83.22;102760.69;4999716;28;45214;-76
2022/01/27 02:04:09;;;;;;;;;64.50;50.00;;;;;3.72;83.67;102759.97;4999476;28;45473;-76
2022/01/27 02:06:40;;;;;;;;;57.50;43.75;;;;;3.74;83.54;102766.84;4999190;28;46129;-77
2022/01/27 02:20:12;;;;;;;;;57.50;47.00;;;;;3.72;83.23;102752.09;4999262;28;45236;-77
2022/01/27 02:22:39;;;;;;;;;61.50;48.25;;;;;3.75;83.54;102757.19;4999354;28;45222;-76
2022/01/27 02:25:05;;;;;;;;;60.25;48.25;;;;;3.70;83.32;102740.78;4981421;28;46228;-77
2022/01/27 02:27:31;;;;;;;;;58.25;47.75;;;;;3.72;83.41;102736.31;4981058;28;48025;-76
2022/01/27 02:29:56;;;;;;;;;55.00;45.50;;;;;3.76;83.79;102741.34;4981654;28;45416;-77
2022/01/27 02:32:22;;;;;;;;;63.25;49.50;;;;;3.78;83.44;102741.25;4984974;28;45358;-76
2022/01/27 02:34:48;;;;;;;;;59.50;48.75;;;;;3.68;83.79;102719.00;5002526;28;45241;-76
2022/01/27 02:37:14;;;;;;;;;60.25;47.50;;;;;3.76;83.59;102737.84;5002314;28;46166;-77
2022/01/27 02:39:40;;;;;;;;;57.00;46.00;;;;;3.69;83.29;102728.56;5002421;28;45225;-77
2022/01/27 02:42:19;;;;;;;;;57.75;45.75;;;;;3.78;83.43;102733.38;4984732;28;45274;-75
2022/01/27 02:44:51;;;;;;;;;61.50;49.50;;;;;3.77;83.64;102727.25;5002039;28;45378;-76
2022/01/27 02:47:18;;;;;;;;;57.25;47.00;;;;;3.74;83.70;102713.41;5002056;28;45992;-76
2022/01/27 02:49:44;;;;;;;;;49.25;40.50;;;;;3.77;82.99;102724.59;5002254;28;45409;-77
2022/01/27 02:52:09;;;;;;;;;53.00;41.75;;;;;3.61;83.21;102698.25;5002301;28;45302;-77
2022/01/27 02:54:35;;;;;;;;;53.50;43.50;;;;;3.73;83.74;102722.22;5002084;28;45491;-76
2022/01/27 02:57:02;;;;;;;;;53.75;44.50;;;;;3.72;83.91;102712.63;5002172;28;45384;-77
2022/01/27 02:59:27;;;;;;;;;59.25;48.25;;;;;3.65;83.17;102710.31;5001903;28;45311;-77
2022/01/27 03:01:53;;;;;;;;;56.50;46.00;;;;;3.72;83.70;102720.53;5002309;28;45364;-77
2022/01/27 03:04:20;;;;;;;;;53.50;45.00;;;;;3.72;82.79;102718.75;5002116;28;45341;-76
2022/01/27 03:06:46;;;;;;;;;56.00;43.50;;;;;3.63;83.03;102703.44;5001940;28;46182;-76
2022/01/27 03:09:12;;;;;;;;;57.75;43.25;;;;;3.72;82.90;102726.66;5000181;28;45848;-75
2022/01/27 03:11:47;;;;;;;;;55.00;45.50;;;;;3.71;83.47;102719.66;5002070;28;45381;-76
2022/01/27 03:14:22;;;;;;;;;55.00;43.75;;;;;3.70;82.77;102717.97;5001702;28;45434;-76
2022/01/27 03:16:48;;;;;;;;;60.50;48.75;;;;;3.72;83.44;102710.00;4984044;28;48100;-76
2022/01/27 03:19:14;;;;;;;;;54.00;44.75;;;;;3.72;83.42;102713.50;5001460;28;45349;-76
2022/01/27 03:21:40;;;;;;;;;57.00;44.50;;;;;3.71;82.81;102706.50;5001893;28;45363;-76
2022/01/27 03:24:06;;;;;;;;;53.50;41.50;;;;;3.66;82.97;102700.66;4983771;28;45879;-76
2022/01/27 03:26:32;;;;;;;;;56.25;46.25;;;;;3.61;83.07;102703.53;5001625;28;45386;-76
2022/01/27 03:28:58;;;;;;;;;61.00;44.75;;;;;3.61;82.78;102708.78;5001301;28;45329;-77
2022/01/27 03:31:24;;;;;;;;;55.75;45.25;;;;;3.59;83.00;102708.00;5001858;28;45293;-76
2022/01/27 03:33:50;;;;;;;;;57.50;47.00;;;;;3.52;83.06;102698.75;4983779;28;46846;-76
2022/01/27 03:36:16;;;;;;;;;48.00;41.50;;;;;3.51;82.92;102697.03;4983738;28;47233;-77
2022/01/27 03:38:42;;;;;;;;;54.50;42.00;;;;;3.61;82.84;102719.31;4983838;28;45258;-77
2022/01/27 03:41:09;;;;;;;;;57.25;44.00;;;;;3.52;82.88;102711.88;4983864;28;45208;-77
2022/01/27 03:43:36;;;;;;;;;53.25;44.50;;;;;3.62;83.38;102726.25;5000632;28;45412;-77
2022/01/27 03:46:03;;;;;;;;;54.25;44.50;;;;;3.55;82.93;102711.72;5001380;28;45281;-76
2022/01/27 03:48:28;;;;;;;;;52.50;41.50;;;;;3.48;83.53;102699.81;4983460;28;45302;-77
2022/01/27 03:50:54;;;;;;;;;55.50;46.50;;;;;3.59;82.54;102713.25;5001320;28;45191;-76
2022/01/27 03:53:20;;;;;;;;;52.75;43.50;;;;;3.60;83.39;102716.75;5001372;28;45476;-77
2022/01/27 03:55:46;;;;;;;;;49.25;40.25;;;;;3.53;83.25;102716.19;5001080;28;45249;-77
2022/01/27 03:58:11;;;;;;;;;56.25;44.75;;;;;3.58;83.08;102713.34;4983152;28;45314;-76
2022/01/27 04:00:37;;;;;;;;;49.50;41.75;;;;;3.65;83.42;102723.47;4983695;28;45386;-76
2022/01/27 04:03:07;;;;;;;;;52.75;43.50;;;;;3.57;83.32;102695.88;5001225;28;45251;-76
2022/01/27 04:05:37;;;;;;;;;47.75;40.50;;;;;3.66;83.65;102703.28;5000959;28;46110;-76
2022/01/27 04:08:04;;;;;;;;;51.50;41.50;;;;;3.74;82.83;102718.69;5000983;28;45330;-76
2022/01/27 04:10:29;;;;;;;;;54.50;47.00;;;;;3.72;82.79;102717.91;5000745;28;45337;-76
2022/01/27 04:12:55;;;;;;;;;53.50;45.25;;;;;3.62;83.08;102707.84;4982876;28;45448;-77
2022/01/27 04:15:20;;;;;;;;;52.50;43.75;;;;;3.64;82.98;102708.63;5000887;28;46194;-76
2022/01/27 04:17:46;;;;;;;;;51.50;42.00;;;;;3.72;83.16;102717.91;5000562;28;45347;-76
2022/01/27 04:20:11;;;;;;;;;54.50;43.50;;;;;3.71;82.61;102724.94;4983465;28;45298;-76
2022/01/27 04:22:37;;;;;;;;;48.75;41.50;;;;;3.71;83.38;102710.94;4983192;28;47207;-76
2022/01/27 04:25:03;;;;;;;;;46.75;41.50;;;;;3.64;83.39;102703.38;5000714;28;45284;-77
2022/01/27 04:27:32;;;;;;;;;52.25;43.75;;;;;3.57;83.29;102695.88;4982885;28;45243;-76
2022/01/27 04:29:58;;;;;;;;;56.00;42.25;;;;;3.63;83.55;102706.94;5000700;28;45425;-77
2022/01/27 04:32:29;;;;;;;;;29.50;23.75;;;;;3.59;82.79;102699.28;5000682;28;45480;-77
2022/01/27 04:35:00;;;;;;;;;57.75;44.75;;;;;3.63;83.25;102712.19;5000583;28;45249;-76
2022/01/27 04:37:27;;;;;;;;;54.25;43.75;;;;;3.56;83.38;102708.16;5000595;28;45337;-76
2022/01/27 04:40:03;;;;;;;;;46.00;39.50;;;;;3.65;82.70;102720.84;4983012;28;45413;-77
2022/01/27 04:42:57;;;;;;;;;56.00;43.50;;;;;3.65;83.08;102720.84;5000353;28;45535;-75
2022/01/27 04:45:16;;;;;;;;;52.00;42.50;;;;;3.59;82.84;102709.81;4999728;28;46411;-77
2022/01/27 04:47:46;;;;;;;;;52.75;41.25;;;;;3.60;83.42;102701.84;4982642;28;45909;-76
2022/01/27 04:50:11;;;;;;;;;50.25;41.75;;;;;3.64;82.89;102703.38;5000560;28;45389;-77
2022/01/27 04:52:41;;;;;;;;;49.00;38.50;;;;;3.66;82.85;102704.13;5000308;28;45470;-76
2022/01/27 04:55:10;;;;;;;;;52.50;42.25;;;;;3.68;82.77;102693.53;4999328;28;45230;-75
2022/01/27 04:57:39;;;;;;;;;53.00;43.50;;;;;3.62;83.50;102684.19;4982457;28;45833;-75
2022/01/27 05:00:05;;;;;;;;;42.75;37.50;;;;;3.65;82.51;102686.66;4983560;28;45482;-76
2022/01/27 05:02:44;;;;;;;;;49.00;41.75;;;;;3.70;83.27;102693.44;5001288;28;45475;-76
2022/01/27 05:05:09;;;;;;;;;51.00;41.25;;;;;3.71;83.16;102698.63;4983368;28;48080;-76
2022/01/27 05:07:35;;;;;;;;;45.75;37.50;;;;;3.68;83.05;102703.22;4999990;28;45429;-76
2022/01/27 05:10:09;;;;;;;;;45.50;40.00;;;;;3.69;82.99;102708.38;4982382;28;45656;-76
2022/01/27 05:15:03;;;;;;;;;49.50;40.00;;;;;3.54;82.39;102675.84;4999965;28;45906;-75
2022/01/27 05:17:29;;;;;;;;;50.00;41.00;;;;;3.63;82.95;102704.31;4999846;28;45242;-76
2022/01/27 05:19:54;;;;;;;;;48.00;39.75;;;;;3.49;83.39;102680.47;5000175;28;45224;-76
2022/01/27 05:22:19;;;;;;;;;52.00;40.50;;;;;3.56;83.08;102692.38;4982207;28;47394;-76
2022/01/27 05:24:45;;;;;;;;;57.50;45.00;;;;;3.48;82.62;102684.06;4999712;28;45318;-76
2022/01/27 05:27:10;;;;;;;;;55.25;45.25;;;;;3.47;82.34;102672.69;4982118;28;45354;-76
2022/01/27 05:29:35;;;;;;;;;53.25;44.50;;;;;3.40;83.22;102660.78;4999673;28;45278;-76
2022/01/27 05:32:01;;;;;;;;;46.50;39.00;;;;;3.53;83.07;102692.53;4999766;28;45230;-75
2022/01/27 05:34:26;;;;;;;;;58.75;46.00;;;;;3.48;83.05;102684.06;4982079;28;48298;-76
2022/01/27 05:36:52;;;;;;;;;56.00;45.25;;;;;3.47;83.20;102674.47;4999854;28;45338;-75
2022/01/27 05:39:17;;;;;;;;;48.25;41.25;;;;;3.49;82.77;102693.63;4999786;28;45321;-76
2022/01/27 05:41:43;;;;;;;;;47.75;39.25;;;;;3.52;82.46;102699.59;4999776;28;45262;-75
2022/01/27 05:44:08;;;;;;;;;47.75;41.50;;;;;3.44;82.78;102688.59;4999488;28;46050;-75
2022/01/27 05:46:34;;;;;;;;;45.50;39.00;;;;;3.52;83.34;102696.97;4981944;28;45306;-75
2022/01/27 05:49:00;;;;;;;;;53.75;40.25;;;;;3.47;83.38;102679.72;4981978;28;45332;-76
2022/01/27 05:51:25;;;;;;;;;53.00;40.75;;;;;3.54;82.93;102687.19;4981805;28;46976;-75
2022/01/27 05:53:51;;;;;;;;;50.75;41.25;;;;;3.53;82.56;102682.03;4981871;28;47321;-75
2022/01/27 05:56:16;;;;;;;;;54.00;41.25;;;;;3.51;82.56;102682.09;4983401;28;45334;-76
2022/01/27 05:58:42;;;;;;;;;45.50;41.00;;;;;3.48;82.74;102679.66;4981138;28;45361;-75
2022/01/27 06:01:08;;;;;;;;;44.75;36.50;;;;;3.53;83.02;102684.66;5009497;28;45552;-76
2022/01/27 06:03:33;;;;;;;;;49.50;40.50;;;;;3.46;82.85;102680.66;5009418;28;47096;-76
2022/01/27 06:05:59;;;;;;;;;37.75;32.25;;;;;3.49;82.96;102685.75;5026133;28;45306;-76
2022/01/27 06:08:25;;;;;;;;;34.75;34.25;;;;;3.38;83.08;102675.81;5007601;28;45311;-76
2022/01/27 06:10:51;;;;;;;;;42.75;35.00;;;;;3.48;82.83;102694.56;5007259;28;46082;-77
2022/01/27 06:13:16;;;;;;;;;53.25;41.50;;;;;3.38;82.32;102684.53;5024264;28;45501;-76
2022/01/27 06:15:42;;;;;;;;;51.00;42.00;;;;;3.41;83.15;102692.25;5012085;28;45426;-76
2022/01/27 06:18:07;;;;;;;;;52.25;41.00;;;;;3.31;82.82;102679.66;4981694;28;45658;-79
2022/01/27 06:20:33;;;;;;;;;53.50;44.75;;;;;3.33;82.58;102678.66;4982974;28;45433;-77
2022/01/27 06:22:58;;;;;;;;;43.75;35.00;;;;;3.32;82.34;102686.63;4982990;28;45369;-76
2022/01/27 06:25:28;;;;;;;;;47.00;40.75;;;;;3.43;83.26;102704.47;4982911;28;45338;-76
2022/01/27 06:27:53;;;;;;;;;46.00;40.00;;;;;3.44;83.02;102707.00;4983007;28;45229;-77
2022/01/27 06:30:19;;;;;;;;;46.00;38.50;;;;;3.44;83.33;102704.38;4982733;28;45252;-77
2022/01/27 06:32:44;;;;;;;;;44.50;37.75;;;;;3.35;82.59;102699.63;4995775;28;47640;-76
2022/01/27 06:35:10;;;;;;;;;46.50;37.75;;;;;3.29;83.28;102687.63;4982580;28;45338;-76
2022/01/27 06:37:36;;;;;;;;;42.00;35.50;;;;;3.37;82.76;102717.00;4982937;28;45233;-77
2022/01/27 06:40:05;;;;;;;;;41.25;35.50;;;;;3.24;82.75;102702.78;4965129;28;46787;-77
2022/01/27 06:42:31;;;;;;;;;43.50;39.75;;;;;3.32;83.10;102713.75;4964922;28;47304;-75
2022/01/27 06:44:56;;;;;;;;;43.75;39.00;;;;;3.33;83.60;102719.88;4982610;28;45421;-77
2022/01/27 06:47:21;;;;;;;;;45.00;38.25;;;;;3.32;83.07;102716.38;4982780;28;45302;-75
2022/01/27 06:49:47;;;;;;;;;52.00;42.75;;;;;3.13;83.17;102687.53;4964971;28;46193;-76
2022/01/27 06:52:12;;;;;;;;;47.25;40.75;;;;;3.29;82.54;102711.28;4965053;28;47550;-78
2022/01/27 06:54:38;;;;;;;;;39.00;35.50;;;;;3.35;82.96;102718.03;4982514;28;45270;-76
2022/01/27 06:57:05;;;;;;;;;52.75;42.50;;;;;3.37;82.89;102711.75;4980819;28;45381;-75
2022/01/27 06:59:30;;;;;;;;;51.75;39.00;;;;;3.43;82.95;102726.34;4982441;28;45449;-77
2022/01/27 07:01:56;;;;;;;;;48.25;39.75;;;;;3.28;82.83;102706.94;4978396;28;45440;-76
2022/01/27 07:04:21;;;;;;;;;57.00;45.00;;;;;3.22;82.46;102688.84;4964350;28;45844;-77
2022/01/27 07:06:48;;;;;;;;;58.75;45.00;;;;;3.29;83.20;102708.63;4964208;28;45472;-76
2022/01/27 07:09:13;;;;;;;;;43.00;38.50;;;;;3.31;83.10;102701.53;4982133;28;45376;-77
2022/01/27 07:11:39;;;;;;;;;47.25;39.25;;;;;3.40;82.72;102721.25;4982103;28;45266;-77
2022/01/27 07:14:04;;;;;;;;;51.75;42.75;;;;;3.32;83.28;102716.38;4982124;28;45278;-76
2022/01/27 07:16:30;;;;;;;;;51.75;40.75;;;;;3.40;82.78;102732.63;4981546;28;45360;-76
2022/01/27 07:18:55;;;;;;;;;45.50;39.25;;;;;3.30;82.99;102720.00;4964416;28;46852;-76
2022/01/27 07:21:21;;;;;;;;;46.00;38.25;;;;;3.38;82.54;102736.28;4982028;28;46822;-78
2022/01/27 07:23:47;;;;;;;;;52.50;40.00;;;;;3.32;82.68;102726.06;4982598;28;45357;-76
2022/01/27 07:26:14;;;;;;;;;51.25;42.25;;;;;3.34;83.01;102727.69;4982456;28;45321;-78
2022/01/27 07:28:39;;;;;;;;;49.75;41.50;;;;;3.25;83.27;102718.47;4964066;28;46924;-76
2022/01/27 07:31:05;;;;;;;;;47.25;41.00;;;;;3.41;83.01;102733.47;4981641;28;46001;-77
2022/01/27 07:33:30;;;;;;;;;49.25;40.00;;;;;3.38;82.29;102729.22;4999375;28;45465;-76
2022/01/27 07:35:56;;;;;;;;;52.50;43.75;;;;;3.31;82.78;102716.44;5001418;28;45392;-77
2022/01/27 07:38:23;;;;;;;;;49.50;41.75;;;;;3.41;83.11;102729.06;4999657;28;45216;-79
2022/01/27 07:40:49;;;;;;;;;55.25;42.50;;;;;3.26;82.85;102699.13;5002000;28;46324;-78
2022/01/27 07:43:15;;;;;;;;;53.75;41.25;;;;;3.47;83.21;102727.06;5001355;28;45329;-76
2022/01/27 07:45:40;;;;;;;;;50.50;42.25;;;;;3.37;82.86;102709.13;4999828;28;45685;-77
2022/01/27 07:48:06;;;;;;;;;43.50;36.50;;;;;3.37;82.70;102713.50;4982208;28;46229;-77
2022/01/27 07:50:32;;;;;;;;;52.00;40.25;;;;;3.33;83.16;102711.97;5009293;28;46070;-77
2022/01/27 07:52:57;;;;;;;;;48.25;39.50;;;;;3.41;82.65;102723.81;5021174;28;45311;-78
2022/01/27 07:55:22;;;;;;;;;47.25;39.00;;;;;3.41;83.41;102722.94;5021217;28;45332;-77
2022/01/27 07:57:48;;;;;;;;;48.50;38.00;;;;;3.45;82.36;102727.13;5020884;28;45241;-78
2022/01/27 08:00:14;;;;;;;;;50.75;42.25;;;;;3.40;82.58;102722.09;5019991;28;45400;-76
2022/01/27 08:02:40;;;;;;;;;47.50;40.00;;;;;3.38;82.00;102723.94;4999922;28;45698;-76
2022/01/27 08:05:06;;;;;;;;;47.00;40.25;;;;;3.42;83.12;102727.28;5000637;28;45339;-76
2022/01/27 08:07:32;;;;;;;;;50.25;40.25;;;;;3.39;82.75;102728.28;5017674;28;45681;-76
2022/01/27 08:09:57;;;;;;;;;48.00;40.00;;;;;3.36;82.52;102719.72;5000268;28;46974;-76
2022/01/27 08:12:22;;;;;;;;;53.00;39.75;;;;;3.36;83.46;102723.19;5019500;28;45310;-76
2022/01/27 08:14:48;;;;;;;;;51.75;41.50;;;;;3.43;83.23;102720.22;5001783;28;45665;-75
2022/01/27 08:17:14;;;;;;;;;51.25;40.50;;;;;3.47;82.46;102722.63;5018798;28;45467;-76
2022/01/27 08:19:39;;;;;;;;;56.25;43.00;;;;;3.43;82.72;102725.50;4982495;28;47852;-76
2022/01/27 08:22:07;;;;;;;;;53.75;41.25;;;;;3.47;82.85;102722.63;5000758;28;45298;-76
2022/01/27 08:24:32;;;;;;;;;46.00;39.75;;;;;3.46;82.78;102723.56;5001024;28;45341;-76
2022/01/27 08:27:02;;;;;;;;;48.75;40.25;;;;;3.45;82.95;102723.66;5000430;28;45289;-75
2022/01/27 08:29:37;;;;;;;;;54.00;43.25;;;;;3.56;83.29;102744.16;4982482;28;46877;-76
2022/01/27 08:32:05;;;;;;;;;47.25;39.25;;;;;3.52;82.59;102738.19;4982999;28;46108;-76
2022/01/27 08:34:38;;;;;;;;;46.75;40.75;;;;;3.56;83.23;102746.78;5000908;28;45388;-76
2022/01/27 08:37:10;;;;;;;;;48.00;41.50;;;;;3.59;82.78;102746.63;5000736;28;45488;-76
2022/01/27 08:39:36;;;;;;;;;56.50;43.00;;;;;3.61;82.93;102756.13;5000373;28;46036;-77
2022/01/27 08:42:02;;;;;;;;;57.00;46.25;;;;;3.58;82.57;102740.50;4982746;28;45676;-76
2022/01/27 08:44:28;;;;;;;;;50.00;41.75;;;;;3.67;82.52;102744.44;5000517;28;45487;-76
2022/01/27 08:46:53;;;;;;;;;45.00;38.25;;;;;3.62;82.04;102731.50;5000308;28;45365;-76
2022/01/27 08:49:22;;;;;;;;;45.75;39.75;;;;;3.62;82.71;102728.88;5000455;28;46520;-76
2022/01/27 08:51:47;;;;;;;;;56.50;43.25;;;;;3.65;82.99;102736.63;4982860;28;45342;-76
2022/01/27 08:54:13;;;;;;;;;48.75;39.50;;;;;3.72;82.82;102745.06;5000469;28;45367;-76
2022/01/27 08:56:39;;;;;;;;;51.75;41.25;;;;;3.74;82.52;102740.56;4982749;28;46287;-76
2022/01/27 08:59:04;;;;;;;;;48.75;41.75;;;;;3.73;82.37;102738.00;5000157;28;46131;-76
2022/01/27 09:01:30;;;;;;;;;58.00;47.25;;;;;3.78;82.28;102736.00;4982473;28;45277;-76
2022/01/27 09:03:55;;;;;;;;;50.25;41.75;;;;;3.81;82.13;102738.47;5000541;28;45199;-76
2022/01/27 09:06:21;;;;;;;;;48.25;39.00;;;;;3.69;82.56;102705.75;4982601;28;46615;-76
2022/01/27 09:08:48;;;;;;;;;48.75;41.25;;;;;3.85;82.52;102737.38;4999991;28;46128;-76
2022/01/27 09:11:14;;;;;;;;;54.00;42.25;;;;;3.77;82.14;102708.81;4999671;28;45436;-77
2022/01/27 09:13:41;;;;;;;;;43.50;39.00;;;;;3.89;82.28;102711.75;4999882;28;45741;-76
2022/01/27 09:16:08;;;;;;;;;49.50;41.50;;;;;3.83;82.63;102702.38;5000093;28;45237;-76
2022/01/27 09:18:33;;;;;;;;;56.25;45.25;;;;;3.95;82.21;102727.19;4999574;28;45676;-76
2022/01/27 09:21:03;;;;;;;;;52.00;42.00;;;;;3.87;81.98;102706.56;5015018;28;45254;-76
2022/01/27 09:23:28;;;;;;;;;54.75;42.50;;;;;3.92;82.20;102715.06;4982580;28;45425;-76
2022/01/27 09:26:01;;;;;;;;;56.00;44.25;;;;;3.93;82.39;102715.91;4981607;28;45863;-76
2022/01/27 09:28:26;;;;;;;;;40.25;36.50;;;;;4.00;81.98;102727.81;4981961;28;46886;-75
2022/01/27 09:30:52;;;;;;;;;57.25;42.00;;;;;4.06;82.40;102724.00;4996107;28;45460;-76
2022/01/27 09:33:17;;;;;;;;;51.75;41.25;;;;;4.06;81.95;102707.34;4997938;28;45235;-77
2022/01/27 09:35:43;;;;;;;;;51.50;42.50;;;;;4.07;81.96;102709.06;4980671;28;47154;-77
2022/01/27 09:38:08;;;;;;;;;57.00;41.00;;;;;4.15;81.93;102722.66;4980150;28;48056;-77
2022/01/27 09:40:34;;;;;;;;;56.50;45.00;;;;;4.23;81.84;102722.25;4997272;28;45367;-78
2022/01/27 09:43:02;;;;;;;;;59.75;44.50;;;;;4.16;81.92;102705.94;5001462;28;45333;-76
2022/01/27 09:45:29;;;;;;;;;50.75;41.50;;;;;4.23;81.48;102720.47;5018955;28;45518;-77
2022/01/27 09:47:57;;;;;;;;;52.25;41.00;;;;;4.29;81.52;102708.75;5013116;28;45483;-78
2022/01/27 09:50:46;;;;;;;;;45.00;39.50;;;;;4.33;81.62;102709.41;4995084;28;45400;-79
2022/01/27 09:53:11;;;;;;;;;52.00;42.50;;;;;4.39;81.44;102725.75;4999007;28;45484;-77
2022/01/27 09:55:37;;;;;;;;;51.75;43.00;;;;;4.43;80.96;102721.13;5001847;28;45500;-77
2022/01/27 09:58:04;;;;;;;;;46.75;38.75;;;;;4.49;82.00;102717.34;4991537;28;48425;-79
2022/01/27 10:00:30;;;;;;;;;49.00;43.00;;;;;4.53;81.57;102710.97;4996932;28;45452;-77
2022/01/27 10:03:07;;;;;;;;;53.75;42.50;;;;;4.60;81.42;102708.81;4999668;28;45753;-79
2022/01/27 10:05:33;;;;;;;;;52.00;43.00;;;;;4.59;81.36;102691.31;4995861;28;45406;-77
2022/01/27 10:08:12;;;;;;;;;51.00;42.25;;;;;4.64;80.92;102705.09;4998349;28;46091;-77
2022/01/27 10:10:43;;;;;;;;;56.50;44.25;;;;;4.66;80.92;102705.84;5005198;28;45412;-78
2022/01/27 10:13:11;;;;;;;;;53.50;44.25;;;;;4.65;80.87;102699.75;5020064;28;45395;-76
2022/01/27 10:15:42;;;;;;;;;50.75;40.75;;;;;4.74;81.16;102703.63;5019120;28;45547;-77
2022/01/27 10:18:14;;;;;;;;;50.25;40.25;;;;;4.70;80.55;102677.56;5010867;28;46023;-78
2022/01/27 10:20:49;;;;;;;;;23.25;17.00;;;;;4.83;80.76;102696.13;4981507;28;45251;-78
2022/01/27 10:23:21;;;;;;;;;51.25;41.75;;;;;4.93;81.11;102699.94;4999323;28;45464;-77
2022/01/27 10:25:53;;;;;;;;;51.75;42.50;;;;;4.98;80.78;102691.75;4999060;28;45331;-76
2022/01/27 10:28:29;;;;;;;;;48.50;40.75;;;;;5.05;80.19;102707.13;4998750;28;45360;-76
2022/01/27 10:31:06;;;;;;;;;46.25;39.50;;;;;5.12;80.43;102717.34;4981184;28;45341;-76
2022/01/27 10:33:45;;;;;;;;;52.25;44.00;;;;;5.10;80.55;102714.78;4979787;28;45412;-78
2022/01/27 10:36:22;;;;;;;;;52.50;43.25;;;;;5.18;80.16;102723.09;4980370;28;47426;-78
2022/01/27 10:38:58;;;;;;;;;45.50;39.50;;;;;5.18;80.18;102696.72;4981438;28;47402;-79
2022/01/27 10:41:29;;;;;;;;;51.75;42.00;;;;;5.28;80.02;102702.31;4998865;28;45339;-79
2022/01/27 10:44:11;;;;;;;;;52.75;43.75;;;;;5.21;79.81;102695.69;4998933;28;45208;-79
2022/01/27 10:46:42;;;;;;;;;56.00;45.25;;;;;5.31;79.97;102711.81;4981091;28;46568;-78
2022/01/27 10:49:12;;;;;;;;;49.00;41.25;;;;;5.32;80.24;102710.88;4981455;28;47330;-79
2022/01/27 10:51:47;;;;;;;;;55.00;42.00;;;;;5.34;79.86;102697.59;4981133;28;45647;-78
2022/01/27 10:54:20;;;;;;;;;53.50;42.50;;;;;5.37;79.93;102693.00;5002327;28;45321;-76
2022/01/27 10:56:46;;;;;;;;;52.50;41.75;;;;;5.40;79.69;102702.50;4984233;28;47185;-76
2022/01/27 10:59:14;;;;;;;;;51.00;40.75;;;;;5.41;79.63;102702.44;4984284;28;46291;-76
2022/01/27 11:01:42;;;;;;;;;47.75;40.50;;;;;5.43;79.85;102697.06;5002201;28;45331;-76
2022/01/27 11:04:09;;;;;;;;;52.00;43.50;;;;;5.52;80.04;102696.50;5002191;28;45235;-77
2022/01/27 11:06:37;;;;;;;;;52.00;39.25;;;;;5.54;79.87;102691.97;4984313;28;45473;-77
2022/01/27 11:09:08;;;;;;;;;47.25;39.00;;;;;5.64;79.86;102686.16;5000480;28;46051;-79
2022/01/27 11:11:35;;;;;;;;;54.75;42.50;;;;;5.73;79.84;102684.72;5002496;28;45393;-79
2022/01/27 11:14:02;;;;;;;;;54.75;41.00;;;;;5.70;79.81;102680.50;5000340;28;45290;-80
2022/01/27 11:16:34;;;;;;;;;53.75;42.50;;;;;5.67;79.15;102693.88;5001773;28;45415;-79
2022/01/27 11:19:14;;;;;;;;;51.50;42.50;;;;;5.61;79.12;102687.19;5004521;28;45570;-81
2022/01/27 11:21:43;;;;;;;;;54.25;44.50;;;;;5.63;79.31;102698.47;5003585;28;45341;-80
2022/01/27 11:24:24;;;;;;;;;56.25;43.75;;;;;5.65;79.51;102693.97;4986067;28;45348;-80
2022/01/27 11:26:54;;;;;;;;;55.25;43.50;;;;;5.62;79.74;102667.78;5004695;28;45281;-80
2022/01/27 11:29:21;;;;;;;;;39.75;34.75;;;;;5.76;79.59;102684.56;5001593;28;45270;-82
2022/01/27 11:32:18;;;;;;;;;50.50;41.25;;;;;5.73;79.20;102669.75;4985199;28;45553;-82
2022/01/27 11:34:44;;;;;;;;;54.00;42.50;;;;;5.83;78.92;102675.31;4956036;28;45290;-82
2022/01/27 11:37:09;;;;;;;;;53.75;44.50;;;;;5.77;79.47;102659.84;5003268;28;45327;-81
2022/01/27 11:39:47;;;;;;;;;51.25;40.00;;;;;5.87;78.96;102676.81;5006927;28;45220;-82
2022/01/27 11:42:13;;;;;;;;;50.75;40.25;;;;;5.88;78.92;102667.09;5003964;28;45167;-81
2022/01/27 11:44:39;;;;;;;;;51.75;42.75;;;;;5.89;79.19;102659.09;5002866;28;45246;-79
2022/01/27 11:47:17;;;;;;;;;52.25;41.50;;;;;6.02;79.18;102668.91;4974177;28;45661;-80
2022/01/27 11:50:01;;;;;;;;;53.25;43.75;;;;;6.07;79.00;102669.47;4984450;28;45419;-80
2022/01/27 11:52:28;;;;;;;;;48.00;39.00;;;;;6.07;78.24;102661.53;4982071;28;45318;-81
2022/01/27 11:55:36;;;;;;;;;48.00;39.75;;;;;6.07;78.81;102666.81;4982376;28;45299;-80
2022/01/27 11:58:15;;;;;;;;;51.00;41.50;;;;;6.11;78.54;102667.50;4985165;28;45362;-79
2022/01/27 12:01:18;;;;;;;;;52.25;41.00;;;;;6.15;79.15;102653.16;4984363;28;48221;-79